TAF KSUN
KSUN 270520Z 2706/2812 31006KT P6SM FEW060 BKN250 FM271200 32006KT P6SM FEW040 BKN100 FM272000 13006KT P6SM SCT030 BKN080 FM280200 32006KT P6SM FEW040 AMD LTD TO CLD VIS AND WIND TIL 271400=
METAR KSUN
WC KSUN
WS KSUN
WV KSUN